<?xml version="1.0" encoding="UTF-8" standalone="no" ?>
<gpx xmlns="http://www.topografix.com/GPX/1/1" xmlns:xsi="http://www.w3.org/2001/XMLSchema-instance" xsi:schemaLocation="http://www.topografix.com/GPX/1/1 http://www.topografix.com/GPX/1/1/gpx.xsd" version="1.1" creator="VisuGPX - https://www.visugpx.com">
  <metadata>
    <name>Randonnée autour de Pouze</name>
    <desc><![CDATA[Randonnée dans la campagne autour de Pouze. Magnifique vue sur les Pyrénées. Traversée de bois.]]></desc>
  </metadata>
  <trk>
    <name><![CDATA[Randonnée autour de Pouze_1]]></name>
    <trkseg>
      <trkpt lat="43.43403" lon="1.52637">
        <ele>253</ele>
        <time>2016-10-15T07:29:36Z</time>
      </trkpt>
      <trkpt lat="43.43401" lon="1.52637">
        <ele>253</ele>
        <time>2016-10-15T07:29:43Z</time>
      </trkpt>
      <trkpt lat="43.43396" lon="1.52654">
        <ele>253</ele>
        <time>2016-10-15T07:30:15Z</time>
      </trkpt>
      <trkpt lat="43.4338" lon="1.52654">
        <ele>254</ele>
        <time>2016-10-15T07:30:31Z</time>
      </trkpt>
      <trkpt lat="43.43375" lon="1.5265">
        <ele>254</ele>
        <time>2016-10-15T07:30:37Z</time>
      </trkpt>
      <trkpt lat="43.43389" lon="1.52613">
        <ele>253</ele>
        <time>2016-10-15T07:31:09Z</time>
      </trkpt>
      <trkpt lat="43.43402" lon="1.52571">
        <ele>253</ele>
        <time>2016-10-15T07:31:39Z</time>
      </trkpt>
      <trkpt lat="43.43431" lon="1.52449">
        <ele>249</ele>
        <time>2016-10-15T07:32:57Z</time>
      </trkpt>
      <trkpt lat="43.43458" lon="1.52298">
        <ele>245</ele>
        <time>2016-10-15T07:34:34Z</time>
      </trkpt>
      <trkpt lat="43.43459" lon="1.52279">
        <ele>245</ele>
        <time>2016-10-15T07:34:45Z</time>
      </trkpt>
      <trkpt lat="43.43467" lon="1.52243">
        <ele>246</ele>
        <time>2016-10-15T07:35:08Z</time>
      </trkpt>
      <trkpt lat="43.43474" lon="1.52189">
        <ele>246</ele>
        <time>2016-10-15T07:35:44Z</time>
      </trkpt>
      <trkpt lat="43.43484" lon="1.52152">
        <ele>245</ele>
        <time>2016-10-15T07:36:10Z</time>
      </trkpt>
      <trkpt lat="43.43485" lon="1.52129">
        <ele>245</ele>
        <time>2016-10-15T07:36:23Z</time>
      </trkpt>
      <trkpt lat="43.43492" lon="1.52085">
        <ele>244</ele>
        <time>2016-10-15T07:36:50Z</time>
      </trkpt>
      <trkpt lat="43.43492" lon="1.52068">
        <ele>243</ele>
        <time>2016-10-15T07:37:00Z</time>
      </trkpt>
      <trkpt lat="43.43499" lon="1.52039">
        <ele>242</ele>
        <time>2016-10-15T07:37:19Z</time>
      </trkpt>
      <trkpt lat="43.43501" lon="1.51997">
        <ele>242</ele>
        <time>2016-10-15T07:37:43Z</time>
      </trkpt>
      <trkpt lat="43.43509" lon="1.51916">
        <ele>241</ele>
        <time>2016-10-15T07:38:32Z</time>
      </trkpt>
      <trkpt lat="43.43509" lon="1.51905">
        <ele>240</ele>
        <time>2016-10-15T07:38:39Z</time>
      </trkpt>
      <trkpt lat="43.43504" lon="1.51894">
        <ele>240</ele>
        <time>2016-10-15T07:38:46Z</time>
      </trkpt>
      <trkpt lat="43.435" lon="1.51889">
        <ele>240</ele>
        <time>2016-10-15T07:38:51Z</time>
      </trkpt>
      <trkpt lat="43.43491" lon="1.51884">
        <ele>239</ele>
        <time>2016-10-15T07:39:00Z</time>
      </trkpt>
      <trkpt lat="43.43463" lon="1.51878">
        <ele>238</ele>
        <time>2016-10-15T07:39:23Z</time>
      </trkpt>
      <trkpt lat="43.43447" lon="1.51877">
        <ele>238</ele>
        <time>2016-10-15T07:39:37Z</time>
      </trkpt>
      <trkpt lat="43.43428" lon="1.51883">
        <ele>237</ele>
        <time>2016-10-15T07:39:56Z</time>
      </trkpt>
      <trkpt lat="43.4341" lon="1.51894">
        <ele>237</ele>
        <time>2016-10-15T07:40:14Z</time>
      </trkpt>
      <trkpt lat="43.43393" lon="1.51894">
        <ele>236</ele>
        <time>2016-10-15T07:40:27Z</time>
      </trkpt>
      <trkpt lat="43.43358" lon="1.51902">
        <ele>236</ele>
        <time>2016-10-15T07:40:57Z</time>
      </trkpt>
      <trkpt lat="43.4334" lon="1.51902">
        <ele>236</ele>
        <time>2016-10-15T07:41:12Z</time>
      </trkpt>
      <trkpt lat="43.43297" lon="1.51886">
        <ele>237</ele>
        <time>2016-10-15T07:41:49Z</time>
      </trkpt>
      <trkpt lat="43.43269" lon="1.51869">
        <ele>238</ele>
        <time>2016-10-15T07:42:15Z</time>
      </trkpt>
      <trkpt lat="43.43235" lon="1.5184">
        <ele>239</ele>
        <time>2016-10-15T07:42:52Z</time>
      </trkpt>
      <trkpt lat="43.43225" lon="1.51824">
        <ele>238</ele>
        <time>2016-10-15T07:43:03Z</time>
      </trkpt>
      <trkpt lat="43.43203" lon="1.518">
        <ele>237</ele>
        <time>2016-10-15T07:43:26Z</time>
      </trkpt>
      <trkpt lat="43.43196" lon="1.51797">
        <ele>237</ele>
        <time>2016-10-15T07:43:31Z</time>
      </trkpt>
      <trkpt lat="43.43138" lon="1.5174">
        <ele>231</ele>
        <time>2016-10-15T07:44:29Z</time>
      </trkpt>
      <trkpt lat="43.43053" lon="1.51681">
        <ele>231</ele>
        <time>2016-10-15T07:45:50Z</time>
      </trkpt>
      <trkpt lat="43.43025" lon="1.51639">
        <ele>233</ele>
        <time>2016-10-15T07:46:24Z</time>
      </trkpt>
      <trkpt lat="43.43018" lon="1.51608">
        <ele>234</ele>
        <time>2016-10-15T07:46:44Z</time>
      </trkpt>
      <trkpt lat="43.43011" lon="1.51595">
        <ele>234</ele>
        <time>2016-10-15T07:46:54Z</time>
      </trkpt>
      <trkpt lat="43.43005" lon="1.51575">
        <ele>235</ele>
        <time>2016-10-15T07:47:09Z</time>
      </trkpt>
      <trkpt lat="43.43" lon="1.51566">
        <ele>236</ele>
        <time>2016-10-15T07:47:17Z</time>
      </trkpt>
      <trkpt lat="43.42968" lon="1.51537">
        <ele>239</ele>
        <time>2016-10-15T07:47:51Z</time>
      </trkpt>
      <trkpt lat="43.4295" lon="1.51515">
        <ele>239</ele>
        <time>2016-10-15T07:48:12Z</time>
      </trkpt>
      <trkpt lat="43.42914" lon="1.51483">
        <ele>238</ele>
        <time>2016-10-15T07:48:49Z</time>
      </trkpt>
      <trkpt lat="43.42851" lon="1.51418">
        <ele>236</ele>
        <time>2016-10-15T07:49:53Z</time>
      </trkpt>
      <trkpt lat="43.42821" lon="1.51391">
        <ele>234</ele>
        <time>2016-10-15T07:50:22Z</time>
      </trkpt>
      <trkpt lat="43.42768" lon="1.51335">
        <ele>232</ele>
        <time>2016-10-15T07:51:16Z</time>
      </trkpt>
      <trkpt lat="43.42713" lon="1.51281">
        <ele>233</ele>
        <time>2016-10-15T07:52:11Z</time>
      </trkpt>
      <trkpt lat="43.42665" lon="1.5124">
        <ele>234</ele>
        <time>2016-10-15T07:53:00Z</time>
      </trkpt>
      <trkpt lat="43.42596" lon="1.51187">
        <ele>235</ele>
        <time>2016-10-15T07:54:10Z</time>
      </trkpt>
      <trkpt lat="43.42596" lon="1.51183">
        <ele>235</ele>
        <time>2016-10-15T07:55:56Z</time>
      </trkpt>
      <trkpt lat="43.42589" lon="1.51186">
        <ele>235</ele>
        <time>2016-10-15T07:56:10Z</time>
      </trkpt>
      <trkpt lat="43.42579" lon="1.51182">
        <ele>235</ele>
        <time>2016-10-15T07:56:20Z</time>
      </trkpt>
      <trkpt lat="43.42543" lon="1.51167">
        <ele>234</ele>
        <time>2016-10-15T07:56:54Z</time>
      </trkpt>
      <trkpt lat="43.42519" lon="1.51153">
        <ele>232</ele>
        <time>2016-10-15T07:57:16Z</time>
      </trkpt>
      <trkpt lat="43.42484" lon="1.51121">
        <ele>229</ele>
        <time>2016-10-15T07:57:52Z</time>
      </trkpt>
      <trkpt lat="43.42461" lon="1.51103">
        <ele>227</ele>
        <time>2016-10-15T07:58:16Z</time>
      </trkpt>
      <trkpt lat="43.42365" lon="1.51036">
        <ele>222</ele>
        <time>2016-10-15T07:59:48Z</time>
      </trkpt>
      <trkpt lat="43.42348" lon="1.51028">
        <ele>222</ele>
        <time>2016-10-15T08:00:06Z</time>
      </trkpt>
      <trkpt lat="43.42312" lon="1.5111">
        <ele>221</ele>
        <time>2016-10-15T08:00:59Z</time>
      </trkpt>
      <trkpt lat="43.42299" lon="1.51152">
        <ele>219</ele>
        <time>2016-10-15T08:01:28Z</time>
      </trkpt>
      <trkpt lat="43.42291" lon="1.51165">
        <ele>218</ele>
        <time>2016-10-15T08:01:45Z</time>
      </trkpt>
      <trkpt lat="43.42282" lon="1.51188">
        <ele>216</ele>
        <time>2016-10-15T08:02:04Z</time>
      </trkpt>
      <trkpt lat="43.42274" lon="1.51199">
        <ele>215</ele>
        <time>2016-10-15T08:02:15Z</time>
      </trkpt>
      <trkpt lat="43.42258" lon="1.51244">
        <ele>210</ele>
        <time>2016-10-15T08:02:49Z</time>
      </trkpt>
      <trkpt lat="43.42234" lon="1.51284">
        <ele>205</ele>
        <time>2016-10-15T08:03:22Z</time>
      </trkpt>
      <trkpt lat="43.42214" lon="1.51337">
        <ele>200</ele>
        <time>2016-10-15T08:04:00Z</time>
      </trkpt>
      <trkpt lat="43.42192" lon="1.51381">
        <ele>197</ele>
        <time>2016-10-15T08:04:35Z</time>
      </trkpt>
      <trkpt lat="43.42184" lon="1.5139">
        <ele>196</ele>
        <time>2016-10-15T08:04:44Z</time>
      </trkpt>
      <trkpt lat="43.42138" lon="1.51399">
        <ele>194</ele>
        <time>2016-10-15T08:05:26Z</time>
      </trkpt>
      <trkpt lat="43.42109" lon="1.51414">
        <ele>195</ele>
        <time>2016-10-15T08:05:55Z</time>
      </trkpt>
      <trkpt lat="43.42089" lon="1.51431">
        <ele>195</ele>
        <time>2016-10-15T08:06:17Z</time>
      </trkpt>
      <trkpt lat="43.42062" lon="1.51462">
        <ele>196</ele>
        <time>2016-10-15T08:06:49Z</time>
      </trkpt>
      <trkpt lat="43.41988" lon="1.51565">
        <ele>198</ele>
        <time>2016-10-15T08:08:25Z</time>
      </trkpt>
      <trkpt lat="43.41911" lon="1.51655">
        <ele>201</ele>
        <time>2016-10-15T08:09:55Z</time>
      </trkpt>
      <trkpt lat="43.41894" lon="1.51679">
        <ele>202</ele>
        <time>2016-10-15T08:10:18Z</time>
      </trkpt>
      <trkpt lat="43.41879" lon="1.51693">
        <ele>203</ele>
        <time>2016-10-15T08:10:35Z</time>
      </trkpt>
      <trkpt lat="43.41865" lon="1.51715">
        <ele>204</ele>
        <time>2016-10-15T08:10:53Z</time>
      </trkpt>
      <trkpt lat="43.41842" lon="1.51744">
        <ele>205</ele>
        <time>2016-10-15T08:11:24Z</time>
      </trkpt>
      <trkpt lat="43.41827" lon="1.51784">
        <ele>207</ele>
        <time>2016-10-15T08:11:55Z</time>
      </trkpt>
      <trkpt lat="43.41814" lon="1.51856">
        <ele>210</ele>
        <time>2016-10-15T08:12:45Z</time>
      </trkpt>
      <trkpt lat="43.41803" lon="1.51899">
        <ele>211</ele>
        <time>2016-10-15T08:13:16Z</time>
      </trkpt>
      <trkpt lat="43.41779" lon="1.52038">
        <ele>215</ele>
        <time>2016-10-15T08:14:48Z</time>
      </trkpt>
      <trkpt lat="43.41766" lon="1.52083">
        <ele>215</ele>
        <time>2016-10-15T08:15:18Z</time>
      </trkpt>
      <trkpt lat="43.41762" lon="1.52091">
        <ele>215</ele>
        <time>2016-10-15T08:17:26Z</time>
      </trkpt>
      <trkpt lat="43.41759" lon="1.52091">
        <ele>215</ele>
        <time>2016-10-15T08:19:33Z</time>
      </trkpt>
      <trkpt lat="43.41752" lon="1.52127">
        <ele>215</ele>
        <time>2016-10-15T08:20:01Z</time>
      </trkpt>
      <trkpt lat="43.4174" lon="1.5215">
        <ele>215</ele>
        <time>2016-10-15T08:20:21Z</time>
      </trkpt>
      <trkpt lat="43.41735" lon="1.5217">
        <ele>215</ele>
        <time>2016-10-15T08:20:36Z</time>
      </trkpt>
      <trkpt lat="43.41738" lon="1.52181">
        <ele>215</ele>
        <time>2016-10-15T08:20:44Z</time>
      </trkpt>
      <trkpt lat="43.4176" lon="1.52202">
        <ele>216</ele>
        <time>2016-10-15T08:21:07Z</time>
      </trkpt>
      <trkpt lat="43.41798" lon="1.52227">
        <ele>217</ele>
        <time>2016-10-15T08:21:41Z</time>
      </trkpt>
      <trkpt lat="43.41811" lon="1.52233">
        <ele>217</ele>
        <time>2016-10-15T08:21:53Z</time>
      </trkpt>
      <trkpt lat="43.41814" lon="1.52238">
        <ele>217</ele>
        <time>2016-10-15T08:21:57Z</time>
      </trkpt>
      <trkpt lat="43.41833" lon="1.52238">
        <ele>217</ele>
        <time>2016-10-15T08:22:15Z</time>
      </trkpt>
      <trkpt lat="43.41847" lon="1.52243">
        <ele>217</ele>
        <time>2016-10-15T08:22:28Z</time>
      </trkpt>
      <trkpt lat="43.41876" lon="1.52257">
        <ele>217</ele>
        <time>2016-10-15T08:22:55Z</time>
      </trkpt>
      <trkpt lat="43.41884" lon="1.52268">
        <ele>217</ele>
        <time>2016-10-15T08:23:06Z</time>
      </trkpt>
      <trkpt lat="43.41901" lon="1.5227">
        <ele>217</ele>
        <time>2016-10-15T08:23:20Z</time>
      </trkpt>
      <trkpt lat="43.41907" lon="1.52273">
        <ele>217</ele>
        <time>2016-10-15T08:23:24Z</time>
      </trkpt>
      <trkpt lat="43.41914" lon="1.52282">
        <ele>217</ele>
        <time>2016-10-15T08:23:32Z</time>
      </trkpt>
      <trkpt lat="43.41916" lon="1.52293">
        <ele>217</ele>
        <time>2016-10-15T08:23:38Z</time>
      </trkpt>
      <trkpt lat="43.4193" lon="1.52305">
        <ele>216</ele>
        <time>2016-10-15T08:23:54Z</time>
      </trkpt>
      <trkpt lat="43.41949" lon="1.52316">
        <ele>214</ele>
        <time>2016-10-15T08:24:11Z</time>
      </trkpt>
      <trkpt lat="43.41973" lon="1.52339">
        <ele>212</ele>
        <time>2016-10-15T08:24:38Z</time>
      </trkpt>
      <trkpt lat="43.41985" lon="1.52347">
        <ele>211</ele>
        <time>2016-10-15T08:24:50Z</time>
      </trkpt>
      <trkpt lat="43.42004" lon="1.52369">
        <ele>209</ele>
        <time>2016-10-15T08:25:09Z</time>
      </trkpt>
      <trkpt lat="43.42025" lon="1.52383">
        <ele>209</ele>
        <time>2016-10-15T08:25:30Z</time>
      </trkpt>
      <trkpt lat="43.42056" lon="1.52426">
        <ele>210</ele>
        <time>2016-10-15T08:26:08Z</time>
      </trkpt>
      <trkpt lat="43.42071" lon="1.52441">
        <ele>210</ele>
        <time>2016-10-15T08:26:26Z</time>
      </trkpt>
      <trkpt lat="43.42082" lon="1.52458">
        <ele>212</ele>
        <time>2016-10-15T08:26:43Z</time>
      </trkpt>
      <trkpt lat="43.42103" lon="1.52521">
        <ele>216</ele>
        <time>2016-10-15T08:27:42Z</time>
      </trkpt>
      <trkpt lat="43.42114" lon="1.5257">
        <ele>219</ele>
        <time>2016-10-15T08:28:22Z</time>
      </trkpt>
      <trkpt lat="43.42126" lon="1.52604">
        <ele>220</ele>
        <time>2016-10-15T08:28:48Z</time>
      </trkpt>
      <trkpt lat="43.42138" lon="1.52628">
        <ele>221</ele>
        <time>2016-10-15T08:29:08Z</time>
      </trkpt>
      <trkpt lat="43.42151" lon="1.52645">
        <ele>222</ele>
        <time>2016-10-15T08:29:24Z</time>
      </trkpt>
      <trkpt lat="43.42191" lon="1.52667">
        <ele>226</ele>
        <time>2016-10-15T08:30:04Z</time>
      </trkpt>
      <trkpt lat="43.4221" lon="1.52681">
        <ele>227</ele>
        <time>2016-10-15T08:30:24Z</time>
      </trkpt>
      <trkpt lat="43.42243" lon="1.52723">
        <ele>227</ele>
        <time>2016-10-15T08:31:18Z</time>
      </trkpt>
      <trkpt lat="43.42242" lon="1.52864">
        <ele>231</ele>
        <time>2016-10-15T08:33:16Z</time>
      </trkpt>
      <trkpt lat="43.42245" lon="1.52926">
        <ele>234</ele>
        <time>2016-10-15T08:34:02Z</time>
      </trkpt>
      <trkpt lat="43.42244" lon="1.52948">
        <ele>235</ele>
        <time>2016-10-15T08:34:18Z</time>
      </trkpt>
      <trkpt lat="43.42246" lon="1.52966">
        <ele>235</ele>
        <time>2016-10-15T08:35:27Z</time>
      </trkpt>
      <trkpt lat="43.42244" lon="1.52992">
        <ele>236</ele>
        <time>2016-10-15T08:35:41Z</time>
      </trkpt>
      <trkpt lat="43.42245" lon="1.53169">
        <ele>241</ele>
        <time>2016-10-15T08:36:58Z</time>
      </trkpt>
      <trkpt lat="43.42243" lon="1.5321">
        <ele>242</ele>
        <time>2016-10-15T08:37:28Z</time>
      </trkpt>
      <trkpt lat="43.42247" lon="1.53286">
        <ele>245</ele>
        <time>2016-10-15T08:38:21Z</time>
      </trkpt>
      <trkpt lat="43.42245" lon="1.53316">
        <ele>246</ele>
        <time>2016-10-15T08:38:41Z</time>
      </trkpt>
      <trkpt lat="43.42249" lon="1.53343">
        <ele>247</ele>
        <time>2016-10-15T08:38:59Z</time>
      </trkpt>
      <trkpt lat="43.42246" lon="1.53442">
        <ele>249</ele>
        <time>2016-10-15T08:40:08Z</time>
      </trkpt>
      <trkpt lat="43.42249" lon="1.53491">
        <ele>251</ele>
        <time>2016-10-15T08:40:43Z</time>
      </trkpt>
      <trkpt lat="43.4226" lon="1.5351">
        <ele>252</ele>
        <time>2016-10-15T08:41:01Z</time>
      </trkpt>
      <trkpt lat="43.42263" lon="1.53541">
        <ele>253</ele>
        <time>2016-10-15T08:41:26Z</time>
      </trkpt>
      <trkpt lat="43.42267" lon="1.53554">
        <ele>253</ele>
        <time>2016-10-15T08:41:36Z</time>
      </trkpt>
      <trkpt lat="43.4227" lon="1.53579">
        <ele>254</ele>
        <time>2016-10-15T08:41:54Z</time>
      </trkpt>
      <trkpt lat="43.42272" lon="1.53579">
        <ele>254</ele>
        <time>2016-10-15T08:42:16Z</time>
      </trkpt>
      <trkpt lat="43.4227" lon="1.53589">
        <ele>254</ele>
        <time>2016-10-15T08:42:33Z</time>
      </trkpt>
      <trkpt lat="43.42272" lon="1.53633">
        <ele>255</ele>
        <time>2016-10-15T08:43:02Z</time>
      </trkpt>
      <trkpt lat="43.4227" lon="1.53641">
        <ele>256</ele>
        <time>2016-10-15T08:43:09Z</time>
      </trkpt>
      <trkpt lat="43.4227" lon="1.53686">
        <ele>256</ele>
        <time>2016-10-15T08:43:40Z</time>
      </trkpt>
      <trkpt lat="43.42273" lon="1.53693">
        <ele>256</ele>
        <time>2016-10-15T08:43:46Z</time>
      </trkpt>
      <trkpt lat="43.42279" lon="1.53697">
        <ele>256</ele>
        <time>2016-10-15T08:43:54Z</time>
      </trkpt>
      <trkpt lat="43.42303" lon="1.53701">
        <ele>253</ele>
        <time>2016-10-15T08:44:23Z</time>
      </trkpt>
      <trkpt lat="43.42364" lon="1.53681">
        <ele>247</ele>
        <time>2016-10-15T08:45:27Z</time>
      </trkpt>
      <trkpt lat="43.4239" lon="1.53669">
        <ele>245</ele>
        <time>2016-10-15T08:45:54Z</time>
      </trkpt>
      <trkpt lat="43.42408" lon="1.53665">
        <ele>243</ele>
        <time>2016-10-15T08:46:12Z</time>
      </trkpt>
      <trkpt lat="43.42418" lon="1.53667">
        <ele>242</ele>
        <time>2016-10-15T08:46:21Z</time>
      </trkpt>
      <trkpt lat="43.42422" lon="1.53671">
        <ele>242</ele>
        <time>2016-10-15T08:46:25Z</time>
      </trkpt>
      <trkpt lat="43.42426" lon="1.53699">
        <ele>242</ele>
        <time>2016-10-15T08:46:46Z</time>
      </trkpt>
      <trkpt lat="43.42424" lon="1.53733">
        <ele>243</ele>
        <time>2016-10-15T08:47:08Z</time>
      </trkpt>
      <trkpt lat="43.4242" lon="1.53746">
        <ele>244</ele>
        <time>2016-10-15T08:47:19Z</time>
      </trkpt>
      <trkpt lat="43.4241" lon="1.53755">
        <ele>245</ele>
        <time>2016-10-15T08:47:32Z</time>
      </trkpt>
      <trkpt lat="43.42397" lon="1.53783">
        <ele>246</ele>
        <time>2016-10-15T08:47:59Z</time>
      </trkpt>
      <trkpt lat="43.42386" lon="1.53795">
        <ele>247</ele>
        <time>2016-10-15T08:48:15Z</time>
      </trkpt>
      <trkpt lat="43.42333" lon="1.53884">
        <ele>251</ele>
        <time>2016-10-15T08:49:46Z</time>
      </trkpt>
      <trkpt lat="43.42305" lon="1.53925">
        <ele>255</ele>
        <time>2016-10-15T08:50:32Z</time>
      </trkpt>
      <trkpt lat="43.42286" lon="1.53957">
        <ele>257</ele>
        <time>2016-10-15T08:51:10Z</time>
      </trkpt>
      <trkpt lat="43.42284" lon="1.53965">
        <ele>258</ele>
        <time>2016-10-15T08:51:18Z</time>
      </trkpt>
      <trkpt lat="43.42286" lon="1.5397">
        <ele>258</ele>
        <time>2016-10-15T08:51:24Z</time>
      </trkpt>
      <trkpt lat="43.42303" lon="1.53987">
        <ele>257</ele>
        <time>2016-10-15T08:51:47Z</time>
      </trkpt>
      <trkpt lat="43.42349" lon="1.54014">
        <ele>254</ele>
        <time>2016-10-15T08:52:38Z</time>
      </trkpt>
      <trkpt lat="43.42402" lon="1.54036">
        <ele>246</ele>
        <time>2016-10-15T08:53:37Z</time>
      </trkpt>
      <trkpt lat="43.42461" lon="1.54053">
        <ele>242</ele>
        <time>2016-10-15T08:54:40Z</time>
      </trkpt>
      <trkpt lat="43.42467" lon="1.54064">
        <ele>242</ele>
        <time>2016-10-15T08:54:49Z</time>
      </trkpt>
      <trkpt lat="43.42467" lon="1.54072">
        <ele>242</ele>
        <time>2016-10-15T08:54:53Z</time>
      </trkpt>
      <trkpt lat="43.42459" lon="1.54085">
        <ele>243</ele>
        <time>2016-10-15T08:55:08Z</time>
      </trkpt>
      <trkpt lat="43.42442" lon="1.54125">
        <ele>245</ele>
        <time>2016-10-15T08:55:45Z</time>
      </trkpt>
      <trkpt lat="43.42428" lon="1.54146">
        <ele>247</ele>
        <time>2016-10-15T08:56:07Z</time>
      </trkpt>
      <trkpt lat="43.42428" lon="1.54155">
        <ele>247</ele>
        <time>2016-10-15T08:56:14Z</time>
      </trkpt>
      <trkpt lat="43.42432" lon="1.54169">
        <ele>248</ele>
        <time>2016-10-15T08:56:25Z</time>
      </trkpt>
      <trkpt lat="43.42441" lon="1.54183">
        <ele>247</ele>
        <time>2016-10-15T08:56:40Z</time>
      </trkpt>
      <trkpt lat="43.42451" lon="1.54192">
        <ele>247</ele>
        <time>2016-10-15T08:56:52Z</time>
      </trkpt>
      <trkpt lat="43.42455" lon="1.542">
        <ele>247</ele>
        <time>2016-10-15T08:57:00Z</time>
      </trkpt>
      <trkpt lat="43.42466" lon="1.54206">
        <ele>246</ele>
        <time>2016-10-15T08:57:13Z</time>
      </trkpt>
      <trkpt lat="43.42483" lon="1.54225">
        <ele>245</ele>
        <time>2016-10-15T08:57:33Z</time>
      </trkpt>
      <trkpt lat="43.42489" lon="1.54237">
        <ele>244</ele>
        <time>2016-10-15T08:57:44Z</time>
      </trkpt>
      <trkpt lat="43.42498" lon="1.54244">
        <ele>242</ele>
        <time>2016-10-15T08:57:54Z</time>
      </trkpt>
      <trkpt lat="43.42502" lon="1.54254">
        <ele>242</ele>
        <time>2016-10-15T08:58:01Z</time>
      </trkpt>
      <trkpt lat="43.42518" lon="1.54269">
        <ele>239</ele>
        <time>2016-10-15T08:58:22Z</time>
      </trkpt>
      <trkpt lat="43.42523" lon="1.54278">
        <ele>238</ele>
        <time>2016-10-15T08:58:30Z</time>
      </trkpt>
      <trkpt lat="43.4253" lon="1.54283">
        <ele>237</ele>
        <time>2016-10-15T08:58:38Z</time>
      </trkpt>
      <trkpt lat="43.42533" lon="1.54301">
        <ele>236</ele>
        <time>2016-10-15T08:58:55Z</time>
      </trkpt>
      <trkpt lat="43.42536" lon="1.54304">
        <ele>235</ele>
        <time>2016-10-15T08:59:05Z</time>
      </trkpt>
      <trkpt lat="43.42548" lon="1.54336">
        <ele>232</ele>
        <time>2016-10-15T08:59:42Z</time>
      </trkpt>
      <trkpt lat="43.42552" lon="1.54363">
        <ele>231</ele>
        <time>2016-10-15T09:00:10Z</time>
      </trkpt>
      <trkpt lat="43.42568" lon="1.54394">
        <ele>229</ele>
        <time>2016-10-15T09:00:50Z</time>
      </trkpt>
      <trkpt lat="43.42576" lon="1.54406">
        <ele>229</ele>
        <time>2016-10-15T09:01:16Z</time>
      </trkpt>
      <trkpt lat="43.42591" lon="1.54418">
        <ele>228</ele>
        <time>2016-10-15T09:01:44Z</time>
      </trkpt>
      <trkpt lat="43.42593" lon="1.54426">
        <ele>228</ele>
        <time>2016-10-15T09:01:51Z</time>
      </trkpt>
      <trkpt lat="43.42565" lon="1.54482">
        <ele>230</ele>
        <time>2016-10-15T09:03:17Z</time>
      </trkpt>
      <trkpt lat="43.42529" lon="1.54589">
        <ele>233</ele>
        <time>2016-10-15T09:04:57Z</time>
      </trkpt>
      <trkpt lat="43.42524" lon="1.54595">
        <ele>233</ele>
        <time>2016-10-15T09:05:04Z</time>
      </trkpt>
      <trkpt lat="43.42518" lon="1.54596">
        <ele>234</ele>
        <time>2016-10-15T09:05:10Z</time>
      </trkpt>
      <trkpt lat="43.425" lon="1.54582">
        <ele>235</ele>
        <time>2016-10-15T09:05:31Z</time>
      </trkpt>
      <trkpt lat="43.42492" lon="1.5458">
        <ele>235</ele>
        <time>2016-10-15T09:05:40Z</time>
      </trkpt>
      <trkpt lat="43.42486" lon="1.54587">
        <ele>236</ele>
        <time>2016-10-15T09:05:47Z</time>
      </trkpt>
      <trkpt lat="43.42475" lon="1.54614">
        <ele>237</ele>
        <time>2016-10-15T09:06:10Z</time>
      </trkpt>
      <trkpt lat="43.42452" lon="1.54679">
        <ele>242</ele>
        <time>2016-10-15T09:07:03Z</time>
      </trkpt>
      <trkpt lat="43.42444" lon="1.54707">
        <ele>243</ele>
        <time>2016-10-15T09:07:28Z</time>
      </trkpt>
      <trkpt lat="43.42428" lon="1.54742">
        <ele>246</ele>
        <time>2016-10-15T09:08:02Z</time>
      </trkpt>
      <trkpt lat="43.42429" lon="1.54751">
        <ele>246</ele>
        <time>2016-10-15T09:08:08Z</time>
      </trkpt>
      <trkpt lat="43.42446" lon="1.54768">
        <ele>245</ele>
        <time>2016-10-15T09:08:35Z</time>
      </trkpt>
      <trkpt lat="43.42448" lon="1.54779">
        <ele>245</ele>
        <time>2016-10-15T09:08:46Z</time>
      </trkpt>
      <trkpt lat="43.42452" lon="1.54779">
        <ele>245</ele>
        <time>2016-10-15T09:10:22Z</time>
      </trkpt>
      <trkpt lat="43.42441" lon="1.54808">
        <ele>246</ele>
        <time>2016-10-15T09:11:15Z</time>
      </trkpt>
      <trkpt lat="43.42424" lon="1.54842">
        <ele>248</ele>
        <time>2016-10-15T09:11:47Z</time>
      </trkpt>
      <trkpt lat="43.42394" lon="1.5491">
        <ele>249</ele>
        <time>2016-10-15T09:12:46Z</time>
      </trkpt>
      <trkpt lat="43.42395" lon="1.54922">
        <ele>249</ele>
        <time>2016-10-15T09:12:55Z</time>
      </trkpt>
      <trkpt lat="43.42398" lon="1.54922">
        <ele>249</ele>
        <time>2016-10-15T09:12:59Z</time>
      </trkpt>
      <trkpt lat="43.42406" lon="1.54906">
        <ele>248</ele>
        <time>2016-10-15T09:13:11Z</time>
      </trkpt>
      <trkpt lat="43.42412" lon="1.54902">
        <ele>248</ele>
        <time>2016-10-15T09:13:19Z</time>
      </trkpt>
      <trkpt lat="43.42424" lon="1.54905">
        <ele>246</ele>
        <time>2016-10-15T09:13:35Z</time>
      </trkpt>
      <trkpt lat="43.42467" lon="1.54905">
        <ele>239</ele>
        <time>2016-10-15T09:14:34Z</time>
      </trkpt>
      <trkpt lat="43.42513" lon="1.54894">
        <ele>234</ele>
        <time>2016-10-15T09:15:29Z</time>
      </trkpt>
      <trkpt lat="43.42569" lon="1.54893">
        <ele>228</ele>
        <time>2016-10-15T09:16:28Z</time>
      </trkpt>
      <trkpt lat="43.42658" lon="1.54882">
        <ele>223</ele>
        <time>2016-10-15T09:17:56Z</time>
      </trkpt>
      <trkpt lat="43.42708" lon="1.54886">
        <ele>223</ele>
        <time>2016-10-15T09:18:47Z</time>
      </trkpt>
      <trkpt lat="43.42719" lon="1.54882">
        <ele>223</ele>
        <time>2016-10-15T09:18:57Z</time>
      </trkpt>
      <trkpt lat="43.42723" lon="1.54875">
        <ele>223</ele>
        <time>2016-10-15T09:19:03Z</time>
      </trkpt>
      <trkpt lat="43.4273" lon="1.54845">
        <ele>223</ele>
        <time>2016-10-15T09:19:24Z</time>
      </trkpt>
      <trkpt lat="43.42744" lon="1.54793">
        <ele>222</ele>
        <time>2016-10-15T09:20:03Z</time>
      </trkpt>
      <trkpt lat="43.42756" lon="1.54775">
        <ele>221</ele>
        <time>2016-10-15T09:20:21Z</time>
      </trkpt>
      <trkpt lat="43.42768" lon="1.54742">
        <ele>222</ele>
        <time>2016-10-15T09:20:54Z</time>
      </trkpt>
      <trkpt lat="43.42786" lon="1.54711">
        <ele>223</ele>
        <time>2016-10-15T09:21:25Z</time>
      </trkpt>
      <trkpt lat="43.42806" lon="1.54664">
        <ele>225</ele>
        <time>2016-10-15T09:22:06Z</time>
      </trkpt>
      <trkpt lat="43.42838" lon="1.54615">
        <ele>227</ele>
        <time>2016-10-15T09:22:58Z</time>
      </trkpt>
      <trkpt lat="43.42843" lon="1.54601">
        <ele>228</ele>
        <time>2016-10-15T09:23:12Z</time>
      </trkpt>
      <trkpt lat="43.42857" lon="1.54584">
        <ele>230</ele>
        <time>2016-10-15T09:23:36Z</time>
      </trkpt>
      <trkpt lat="43.42868" lon="1.54582">
        <ele>231</ele>
        <time>2016-10-15T09:23:48Z</time>
      </trkpt>
      <trkpt lat="43.42904" lon="1.54561">
        <ele>235</ele>
        <time>2016-10-15T09:24:30Z</time>
      </trkpt>
      <trkpt lat="43.42933" lon="1.54549">
        <ele>237</ele>
        <time>2016-10-15T09:25:04Z</time>
      </trkpt>
      <trkpt lat="43.42961" lon="1.5455">
        <ele>240</ele>
        <time>2016-10-15T09:25:40Z</time>
      </trkpt>
      <trkpt lat="43.42993" lon="1.54564">
        <ele>243</ele>
        <time>2016-10-15T09:26:16Z</time>
      </trkpt>
      <trkpt lat="43.43025" lon="1.54573">
        <ele>246</ele>
        <time>2016-10-15T09:26:47Z</time>
      </trkpt>
      <trkpt lat="43.43056" lon="1.54573">
        <ele>248</ele>
        <time>2016-10-15T09:27:17Z</time>
      </trkpt>
      <trkpt lat="43.43062" lon="1.54577">
        <ele>248</ele>
        <time>2016-10-15T09:27:24Z</time>
      </trkpt>
      <trkpt lat="43.43077" lon="1.54578">
        <ele>249</ele>
        <time>2016-10-15T09:27:37Z</time>
      </trkpt>
      <trkpt lat="43.43104" lon="1.54575">
        <ele>251</ele>
        <time>2016-10-15T09:28:04Z</time>
      </trkpt>
      <trkpt lat="43.43134" lon="1.54577">
        <ele>254</ele>
        <time>2016-10-15T09:28:37Z</time>
      </trkpt>
      <trkpt lat="43.432" lon="1.54621">
        <ele>259</ele>
        <time>2016-10-15T09:30:00Z</time>
      </trkpt>
      <trkpt lat="43.43218" lon="1.54636">
        <ele>261</ele>
        <time>2016-10-15T09:30:26Z</time>
      </trkpt>
      <trkpt lat="43.4325" lon="1.54654">
        <ele>264</ele>
        <time>2016-10-15T09:31:08Z</time>
      </trkpt>
      <trkpt lat="43.43278" lon="1.54677">
        <ele>266</ele>
        <time>2016-10-15T09:31:51Z</time>
      </trkpt>
      <trkpt lat="43.43297" lon="1.54687">
        <ele>268</ele>
        <time>2016-10-15T09:32:16Z</time>
      </trkpt>
      <trkpt lat="43.43298" lon="1.54683">
        <ele>268</ele>
        <time>2016-10-15T09:32:37Z</time>
      </trkpt>
      <trkpt lat="43.43319" lon="1.54615">
        <ele>268</ele>
        <time>2016-10-15T09:34:20Z</time>
      </trkpt>
      <trkpt lat="43.43333" lon="1.54577">
        <ele>268</ele>
        <time>2016-10-15T09:34:50Z</time>
      </trkpt>
      <trkpt lat="43.43332" lon="1.54575">
        <ele>268</ele>
        <time>2016-10-15T09:34:54Z</time>
      </trkpt>
      <trkpt lat="43.43331" lon="1.54577">
        <ele>268</ele>
        <time>2016-10-15T09:34:58Z</time>
      </trkpt>
      <trkpt lat="43.43332" lon="1.54572">
        <ele>268</ele>
        <time>2016-10-15T09:35:02Z</time>
      </trkpt>
      <trkpt lat="43.4335" lon="1.54517">
        <ele>267</ele>
        <time>2016-10-15T09:35:46Z</time>
      </trkpt>
      <trkpt lat="43.43351" lon="1.54501">
        <ele>267</ele>
        <time>2016-10-15T09:35:57Z</time>
      </trkpt>
      <trkpt lat="43.4336" lon="1.54471">
        <ele>267</ele>
        <time>2016-10-15T09:36:19Z</time>
      </trkpt>
      <trkpt lat="43.43376" lon="1.54425">
        <ele>267</ele>
        <time>2016-10-15T09:36:54Z</time>
      </trkpt>
      <trkpt lat="43.43387" lon="1.54403">
        <ele>267</ele>
        <time>2016-10-15T09:37:11Z</time>
      </trkpt>
      <trkpt lat="43.43392" lon="1.54386">
        <ele>267</ele>
        <time>2016-10-15T09:37:23Z</time>
      </trkpt>
      <trkpt lat="43.43423" lon="1.54309">
        <ele>266</ele>
        <time>2016-10-15T09:38:24Z</time>
      </trkpt>
      <trkpt lat="43.4342" lon="1.54246">
        <ele>264</ele>
        <time>2016-10-15T09:39:06Z</time>
      </trkpt>
      <trkpt lat="43.43437" lon="1.54176">
        <ele>265</ele>
        <time>2016-10-15T09:39:57Z</time>
      </trkpt>
      <trkpt lat="43.43437" lon="1.54146">
        <ele>264</ele>
        <time>2016-10-15T09:40:17Z</time>
      </trkpt>
      <trkpt lat="43.43444" lon="1.54087">
        <ele>262</ele>
        <time>2016-10-15T09:40:59Z</time>
      </trkpt>
      <trkpt lat="43.43441" lon="1.54046">
        <ele>262</ele>
        <time>2016-10-15T09:41:30Z</time>
      </trkpt>
      <trkpt lat="43.43435" lon="1.54005">
        <ele>261</ele>
        <time>2016-10-15T09:41:57Z</time>
      </trkpt>
      <trkpt lat="43.43445" lon="1.53977">
        <ele>262</ele>
        <time>2016-10-15T09:42:20Z</time>
      </trkpt>
      <trkpt lat="43.43459" lon="1.53922">
        <ele>262</ele>
        <time>2016-10-15T09:43:01Z</time>
      </trkpt>
      <trkpt lat="43.43465" lon="1.53907">
        <ele>262</ele>
        <time>2016-10-15T09:43:13Z</time>
      </trkpt>
      <trkpt lat="43.43474" lon="1.53867">
        <ele>262</ele>
        <time>2016-10-15T09:43:43Z</time>
      </trkpt>
      <trkpt lat="43.43478" lon="1.53833">
        <ele>262</ele>
        <time>2016-10-15T09:44:09Z</time>
      </trkpt>
      <trkpt lat="43.43494" lon="1.53781">
        <ele>262</ele>
        <time>2016-10-15T09:44:48Z</time>
      </trkpt>
      <trkpt lat="43.43492" lon="1.53753">
        <ele>263</ele>
        <time>2016-10-15T09:45:09Z</time>
      </trkpt>
      <trkpt lat="43.43494" lon="1.53716">
        <ele>264</ele>
        <time>2016-10-15T09:45:36Z</time>
      </trkpt>
      <trkpt lat="43.43515" lon="1.53656">
        <ele>265</ele>
        <time>2016-10-15T09:46:26Z</time>
      </trkpt>
      <trkpt lat="43.43528" lon="1.53588">
        <ele>263</ele>
        <time>2016-10-15T09:47:23Z</time>
      </trkpt>
      <trkpt lat="43.4353" lon="1.5356">
        <ele>264</ele>
        <time>2016-10-15T09:47:45Z</time>
      </trkpt>
      <trkpt lat="43.43541" lon="1.53527">
        <ele>263</ele>
        <time>2016-10-15T09:48:10Z</time>
      </trkpt>
      <trkpt lat="43.43547" lon="1.53492">
        <ele>263</ele>
        <time>2016-10-15T09:48:35Z</time>
      </trkpt>
      <trkpt lat="43.43548" lon="1.53467">
        <ele>263</ele>
        <time>2016-10-15T09:48:57Z</time>
      </trkpt>
      <trkpt lat="43.43559" lon="1.53415">
        <ele>261</ele>
        <time>2016-10-15T09:49:36Z</time>
      </trkpt>
      <trkpt lat="43.43572" lon="1.53372">
        <ele>260</ele>
        <time>2016-10-15T09:50:10Z</time>
      </trkpt>
      <trkpt lat="43.4357" lon="1.53361">
        <ele>260</ele>
        <time>2016-10-15T09:50:20Z</time>
      </trkpt>
      <trkpt lat="43.43555" lon="1.53343">
        <ele>261</ele>
        <time>2016-10-15T09:50:40Z</time>
      </trkpt>
      <trkpt lat="43.43503" lon="1.53294">
        <ele>260</ele>
        <time>2016-10-15T09:51:40Z</time>
      </trkpt>
      <trkpt lat="43.43465" lon="1.53262">
        <ele>258</ele>
        <time>2016-10-15T09:52:24Z</time>
      </trkpt>
      <trkpt lat="43.43438" lon="1.53234">
        <ele>256</ele>
        <time>2016-10-15T09:52:55Z</time>
      </trkpt>
      <trkpt lat="43.43383" lon="1.53187">
        <ele>254</ele>
        <time>2016-10-15T09:53:56Z</time>
      </trkpt>
      <trkpt lat="43.43354" lon="1.53166">
        <ele>252</ele>
        <time>2016-10-15T09:54:24Z</time>
      </trkpt>
      <trkpt lat="43.43325" lon="1.53151">
        <ele>251</ele>
        <time>2016-10-15T09:54:54Z</time>
      </trkpt>
      <trkpt lat="43.43309" lon="1.53127">
        <ele>250</ele>
        <time>2016-10-15T09:55:17Z</time>
      </trkpt>
      <trkpt lat="43.43292" lon="1.53025">
        <ele>251</ele>
        <time>2016-10-15T09:56:28Z</time>
      </trkpt>
      <trkpt lat="43.43275" lon="1.52955">
        <ele>252</ele>
        <time>2016-10-15T09:57:18Z</time>
      </trkpt>
      <trkpt lat="43.4327" lon="1.52917">
        <ele>253</ele>
        <time>2016-10-15T09:57:44Z</time>
      </trkpt>
      <trkpt lat="43.43271" lon="1.52875">
        <ele>254</ele>
        <time>2016-10-15T09:58:13Z</time>
      </trkpt>
      <trkpt lat="43.43273" lon="1.52857">
        <ele>254</ele>
        <time>2016-10-15T09:58:27Z</time>
      </trkpt>
      <trkpt lat="43.43279" lon="1.52838">
        <ele>255</ele>
        <time>2016-10-15T09:58:44Z</time>
      </trkpt>
      <trkpt lat="43.43293" lon="1.52812">
        <ele>255</ele>
        <time>2016-10-15T09:59:08Z</time>
      </trkpt>
      <trkpt lat="43.43308" lon="1.52789">
        <ele>256</ele>
        <time>2016-10-15T09:59:30Z</time>
      </trkpt>
      <trkpt lat="43.43324" lon="1.52774">
        <ele>255</ele>
        <time>2016-10-15T09:59:48Z</time>
      </trkpt>
      <trkpt lat="43.43335" lon="1.52758">
        <ele>255</ele>
        <time>2016-10-15T10:00:03Z</time>
      </trkpt>
      <trkpt lat="43.43352" lon="1.52723">
        <ele>254</ele>
        <time>2016-10-15T10:00:32Z</time>
      </trkpt>
      <trkpt lat="43.43362" lon="1.52698">
        <ele>254</ele>
        <time>2016-10-15T10:00:53Z</time>
      </trkpt>
      <trkpt lat="43.43371" lon="1.52664">
        <ele>254</ele>
        <time>2016-10-15T10:01:20Z</time>
      </trkpt>
      <trkpt lat="43.43379" lon="1.52656">
        <ele>254</ele>
        <time>2016-10-15T10:01:56Z</time>
      </trkpt>
    </trkseg>
  </trk>
</gpx>